createdAt,value
2023-03-16T00:00:17.051Z,998.11
2023-03-16T00:01:17.065Z,998.09
2023-03-16T00:02:17.114Z,998.17
2023-03-16T00:03:17.056Z,998.10
2023-03-16T00:04:17.027Z,998.12
2023-03-16T00:05:17.027Z,998.12
2023-03-16T00:06:17.009Z,998.11
2023-03-16T00:07:17.022Z,998.24
2023-03-16T00:08:16.989Z,998.22
2023-03-16T00:09:16.993Z,998.19
2023-03-16T00:10:17.004Z,998.15
2023-03-16T00:11:16.980Z,998.19
2023-03-16T00:12:17.252Z,998.22
2023-03-16T00:13:16.957Z,998.15
2023-03-16T00:14:16.968Z,998.15
2023-03-16T00:15:16.959Z,998.14
2023-03-16T00:16:17.081Z,998.10
2023-03-16T00:17:16.965Z,998.14
2023-03-16T00:18:16.942Z,998.09
2023-03-16T00:19:16.935Z,998.12
2023-03-16T00:20:16.929Z,998.12
2023-03-16T00:21:16.941Z,998.08
2023-03-16T00:22:16.904Z,998.12
2023-03-16T00:23:16.898Z,998.07
2023-03-16T00:24:16.904Z,998.08
2023-03-16T00:25:16.891Z,998.07
2023-03-16T00:26:16.915Z,998.02
2023-03-16T00:27:16.872Z,998.06
2023-03-16T00:28:17.872Z,998.05
2023-03-16T00:29:16.861Z,998.03
2023-03-16T00:30:16.862Z,997.96
2023-03-16T00:31:16.901Z,998.03
2023-03-16T00:32:16.877Z,997.98
2023-03-16T00:33:16.833Z,997.99
2023-03-16T00:34:16.842Z,998.10
2023-03-16T00:35:16.820Z,998.07
2023-03-16T00:36:16.811Z,998.06
2023-03-16T00:37:16.933Z,998.13
2023-03-16T00:38:16.821Z,998.13
2023-03-16T00:39:16.791Z,998.07
2023-03-16T00:40:16.789Z,998.07
2023-03-16T00:41:16.781Z,998.14
2023-03-16T00:42:16.787Z,998.06
2023-03-16T00:43:16.787Z,998.00
2023-03-16T00:44:16.759Z,998.01
2023-03-16T00:45:16.753Z,998.02
2023-03-16T00:46:16.834Z,998.15
2023-03-16T00:47:16.754Z,998.10
2023-03-16T00:48:16.743Z,998.16
2023-03-16T00:49:16.734Z,998.09
2023-03-16T00:50:16.737Z,998.13
2023-03-16T00:51:16.739Z,998.16
2023-03-16T00:52:16.705Z,998.17
2023-03-16T00:53:16.710Z,998.15
2023-03-16T00:54:16.712Z,998.15
2023-03-16T00:55:16.689Z,998.10
2023-03-16T00:56:16.693Z,998.15
2023-03-16T00:57:16.676Z,998.14
2023-03-16T00:58:16.684Z,998.12
2023-03-16T00:59:16.670Z,998.08
2023-03-16T01:00:16.659Z,998.11
2023-03-16T01:01:16.739Z,998.15
2023-03-16T01:02:16.660Z,998.12
2023-03-16T01:03:16.679Z,998.11
2023-03-16T01:04:16.622Z,998.18
2023-03-16T01:05:16.623Z,998.19
2023-03-16T01:06:16.611Z,998.15
2023-03-16T01:07:16.619Z,998.13
2023-03-16T01:08:16.588Z,998.14
2023-03-16T01:09:16.603Z,998.11
2023-03-16T01:10:16.627Z,998.12
2023-03-16T01:11:16.616Z,998.07
2023-03-16T01:12:16.578Z,998.12
2023-03-16T01:13:16.593Z,998.09
2023-03-16T01:14:16.554Z,998.09
2023-03-16T01:15:16.581Z,998.08
2023-03-16T01:16:16.607Z,998.10
2023-03-16T01:17:16.541Z,998.11
2023-03-16T01:18:16.538Z,998.03
2023-03-16T01:19:16.535Z,998.09
2023-03-16T01:20:16.553Z,998.05
2023-03-16T01:21:16.517Z,998.08
2023-03-16T01:22:16.509Z,997.96
2023-03-16T01:23:16.508Z,998.00
2023-03-16T01:24:16.504Z,998.00
2023-03-16T01:25:16.496Z,997.92
2023-03-16T01:26:16.509Z,997.92
2023-03-16T01:27:16.473Z,997.94
2023-03-16T01:28:16.469Z,997.89
2023-03-16T01:29:16.468Z,997.82
2023-03-16T01:30:16.472Z,997.83
2023-03-16T01:31:16.551Z,997.80
2023-03-16T01:32:16.448Z,997.83
2023-03-16T01:33:16.432Z,997.83
2023-03-16T01:34:16.465Z,997.81
2023-03-16T01:35:16.422Z,997.82
2023-03-16T01:36:16.419Z,997.81
2023-03-16T01:37:16.425Z,997.80
2023-03-16T01:38:16.399Z,997.83
2023-03-16T01:39:16.421Z,997.77
2023-03-16T01:40:16.397Z,997.74
2023-03-16T01:41:16.401Z,997.71
2023-03-16T01:42:16.377Z,997.69
2023-03-16T01:43:16.369Z,997.61
2023-03-16T01:44:16.393Z,997.65
2023-03-16T01:45:16.356Z,997.67
2023-03-16T01:46:16.357Z,997.66
2023-03-16T01:47:16.338Z,997.69
2023-03-16T01:48:16.339Z,997.74
2023-03-16T01:49:16.332Z,997.72
2023-03-16T01:50:16.348Z,997.67
2023-03-16T01:51:16.318Z,997.71
2023-03-16T01:52:16.307Z,997.70
2023-03-16T01:53:16.304Z,997.73
2023-03-16T01:54:16.314Z,997.67
2023-03-16T01:55:16.334Z,997.68
2023-03-16T01:56:16.281Z,997.68
2023-03-16T01:57:16.276Z,997.67
2023-03-16T01:58:16.266Z,997.72
2023-03-16T01:59:16.273Z,997.72
2023-03-16T02:00:16.253Z,997.74
2023-03-16T02:01:16.281Z,997.73
2023-03-16T02:02:16.240Z,997.77
2023-03-16T02:03:16.241Z,997.85
2023-03-16T02:04:16.277Z,997.74
2023-03-16T02:05:16.217Z,997.78
2023-03-16T02:06:16.227Z,997.72
2023-03-16T02:07:16.220Z,997.78
2023-03-16T02:08:16.200Z,997.78
2023-03-16T02:09:16.199Z,997.85
2023-03-16T02:10:16.196Z,997.84
2023-03-16T02:11:16.220Z,997.77
2023-03-16T02:12:16.177Z,997.79
2023-03-16T02:13:16.165Z,997.70
2023-03-16T02:14:16.178Z,997.75
2023-03-16T02:15:16.154Z,997.76
2023-03-16T02:16:16.181Z,997.71
2023-03-16T02:17:16.149Z,997.80
2023-03-16T02:18:16.149Z,997.81
2023-03-16T02:19:16.132Z,997.75
2023-03-16T02:20:16.124Z,997.76
2023-03-16T02:21:16.129Z,997.77
2023-03-16T02:22:16.134Z,997.81
2023-03-16T02:23:16.106Z,997.82
2023-03-16T02:24:16.108Z,997.82
2023-03-16T02:25:16.099Z,997.79
2023-03-16T02:26:16.092Z,997.74
2023-03-16T02:27:16.100Z,997.70
2023-03-16T02:28:16.080Z,997.72
2023-03-16T02:29:16.086Z,997.69
2023-03-16T02:30:16.091Z,997.70
2023-03-16T02:31:16.127Z,997.69
2023-03-16T02:32:16.061Z,997.72
2023-03-16T02:33:16.087Z,997.67
2023-03-16T02:34:16.057Z,997.65
2023-03-16T02:35:16.046Z,997.63
2023-03-16T02:36:16.026Z,997.65
2023-03-16T02:37:16.020Z,997.59
2023-03-16T02:38:16.027Z,997.57
2023-03-16T02:39:16.047Z,997.54
2023-03-16T02:40:16.012Z,997.48
2023-03-16T02:41:15.993Z,997.49
2023-03-16T02:42:15.994Z,997.50
2023-03-16T02:43:15.975Z,997.42
2023-03-16T02:44:15.997Z,997.47
2023-03-16T02:45:15.954Z,997.49
2023-03-16T02:46:16.030Z,997.47
2023-03-16T02:47:15.991Z,997.43
2023-03-16T02:48:16.012Z,997.47
2023-03-16T02:49:16.000Z,997.40
2023-03-16T02:50:16.004Z,997.38
2023-03-16T02:51:15.931Z,997.33
2023-03-16T02:52:15.918Z,997.34
2023-03-16T02:53:15.907Z,997.25
2023-03-16T02:54:15.925Z,997.23
2023-03-16T02:55:15.914Z,997.30
2023-03-16T02:56:15.889Z,997.26
2023-03-16T02:57:15.888Z,997.31
2023-03-16T02:58:15.880Z,997.40
2023-03-16T02:59:15.908Z,997.34
2023-03-16T03:00:15.876Z,997.37
2023-03-16T03:01:15.853Z,997.40
2023-03-16T03:02:15.850Z,997.38
2023-03-16T03:03:15.925Z,997.35
2023-03-16T03:04:15.894Z,997.33
2023-03-16T03:05:15.848Z,997.26
2023-03-16T03:06:15.823Z,997.29
2023-03-16T03:07:15.812Z,997.22
2023-03-16T03:08:15.809Z,997.26
2023-03-16T03:09:15.823Z,997.23
2023-03-16T03:10:15.801Z,997.22
2023-03-16T03:11:15.822Z,997.23
2023-03-16T03:12:15.785Z,997.23
2023-03-16T03:13:15.781Z,997.21
2023-03-16T03:14:15.833Z,997.24
2023-03-16T03:15:15.773Z,997.16
2023-03-16T03:16:15.827Z,997.17
2023-03-16T03:17:15.767Z,997.18
2023-03-16T03:18:15.753Z,997.20
2023-03-16T03:19:15.740Z,997.15
2023-03-16T03:20:15.737Z,997.20
2023-03-16T03:21:15.726Z,997.21
2023-03-16T03:22:15.735Z,997.21
2023-03-16T03:23:15.718Z,997.29
2023-03-16T03:24:15.718Z,997.21
2023-03-16T03:25:15.723Z,997.22
2023-03-16T03:26:15.712Z,997.15
2023-03-16T03:27:15.707Z,997.18
2023-03-16T03:28:15.694Z,997.19
2023-03-16T03:29:15.681Z,997.18
2023-03-16T03:30:15.676Z,997.21
2023-03-16T03:31:15.692Z,997.27
2023-03-16T03:32:15.688Z,997.30
2023-03-16T03:33:15.643Z,997.36
2023-03-16T03:34:15.655Z,997.30
2023-03-16T03:35:15.647Z,997.19
2023-03-16T03:36:15.655Z,997.32
2023-03-16T03:37:15.637Z,997.34
2023-03-16T03:38:15.619Z,997.20
2023-03-16T03:39:15.614Z,997.21
2023-03-16T03:40:15.624Z,997.18
2023-03-16T03:41:15.605Z,997.17
2023-03-16T03:42:15.613Z,997.23
2023-03-16T03:43:15.596Z,997.23
2023-03-16T03:44:15.587Z,997.27
2023-03-16T03:45:15.596Z,997.28
2023-03-16T03:46:15.708Z,997.23
2023-03-16T03:47:15.561Z,997.27
2023-03-16T03:48:15.558Z,997.25
2023-03-16T03:49:15.539Z,997.23
2023-03-16T03:50:15.573Z,997.25
2023-03-16T03:51:15.554Z,997.21
2023-03-16T03:52:15.541Z,997.19
2023-03-16T03:53:15.518Z,997.18
2023-03-16T03:54:15.523Z,997.21
2023-03-16T03:55:15.507Z,997.17
2023-03-16T03:56:15.514Z,997.21
2023-03-16T03:57:15.520Z,997.17
2023-03-16T03:58:15.495Z,997.19
2023-03-16T03:59:15.492Z,997.20
2023-03-16T04:00:15.477Z,997.25
2023-03-16T04:01:15.486Z,997.25
2023-03-16T04:02:15.618Z,997.32
2023-03-16T04:03:15.581Z,997.28
2023-03-16T04:04:15.475Z,997.28
2023-03-16T04:05:15.446Z,997.30
2023-03-16T04:06:15.433Z,997.32
2023-03-16T04:07:15.435Z,997.29
2023-03-16T04:08:15.419Z,997.34
2023-03-16T04:09:15.434Z,997.29
2023-03-16T04:10:15.410Z,997.24
2023-03-16T04:11:15.407Z,997.24
2023-03-16T04:12:15.392Z,997.30
2023-03-16T04:13:15.391Z,997.24
2023-03-16T04:14:15.387Z,997.26
2023-03-16T04:15:15.379Z,997.24
2023-03-16T04:16:15.386Z,997.21
2023-03-16T04:17:15.386Z,997.21
2023-03-16T04:18:15.359Z,997.25
2023-03-16T04:19:15.357Z,997.22
2023-03-16T04:20:15.341Z,997.21
2023-03-16T04:21:15.329Z,997.18
2023-03-16T04:22:15.339Z,997.16
2023-03-16T04:23:15.319Z,997.21
2023-03-16T04:24:15.312Z,997.22
2023-03-16T04:25:15.306Z,997.25
2023-03-16T04:26:15.300Z,997.20
2023-03-16T04:27:15.304Z,997.22
2023-03-16T04:28:15.282Z,997.15
2023-03-16T04:29:15.278Z,997.16
2023-03-16T04:30:15.381Z,997.15
2023-03-16T04:31:15.462Z,997.08
2023-03-16T04:32:15.547Z,997.11
2023-03-16T04:33:15.256Z,997.10
2023-03-16T04:34:15.284Z,997.07
2023-03-16T04:35:15.250Z,997.06
2023-03-16T04:36:15.286Z,997.05
2023-03-16T04:37:15.226Z,997.04
2023-03-16T04:38:15.238Z,997.05
2023-03-16T04:39:15.219Z,997.06
2023-03-16T04:40:15.206Z,997.00
2023-03-16T04:41:15.199Z,997.03
2023-03-16T04:42:15.217Z,997.02
2023-03-16T04:43:15.196Z,997.02
2023-03-16T04:44:15.193Z,997.08
2023-03-16T04:45:15.175Z,997.07
2023-03-16T04:46:15.231Z,997.07
2023-03-16T04:47:15.172Z,997.12
2023-03-16T04:48:15.155Z,997.12
2023-03-16T04:49:15.149Z,997.17
2023-03-16T04:50:15.140Z,997.14
2023-03-16T04:51:15.171Z,997.17
2023-03-16T04:52:15.158Z,997.06
2023-03-16T04:53:15.125Z,997.07
2023-03-16T04:54:15.135Z,997.09
2023-03-16T04:55:15.112Z,997.04
2023-03-16T04:56:15.104Z,997.10
2023-03-16T04:57:15.096Z,997.07
2023-03-16T04:58:15.087Z,997.07
2023-03-16T04:59:15.126Z,997.09
2023-03-16T05:00:15.076Z,997.13
2023-03-16T05:01:15.112Z,997.14
2023-03-16T05:02:15.069Z,997.17
2023-03-16T05:03:15.058Z,997.15
2023-03-16T05:04:19.269Z,997.14
2023-03-16T05:05:16.131Z,997.12
2023-03-16T05:06:15.028Z,997.15
2023-03-16T05:07:15.032Z,997.14
2023-03-16T05:08:15.022Z,997.21
2023-03-16T05:09:15.019Z,997.16
2023-03-16T05:10:15.014Z,997.12
2023-03-16T05:11:14.992Z,997.13
2023-03-16T05:12:15.000Z,997.17
2023-03-16T05:13:14.998Z,997.11
2023-03-16T05:14:14.971Z,997.15
2023-03-16T05:15:15.002Z,997.18
2023-03-16T05:16:15.170Z,997.15
2023-03-16T05:17:14.985Z,997.06
2023-03-16T05:18:14.952Z,997.08
2023-03-16T05:19:14.942Z,997.08
2023-03-16T05:20:26.137Z,997.08
2023-03-16T05:21:16.957Z,997.12
2023-03-16T05:22:14.927Z,997.11
2023-03-16T05:23:14.925Z,997.19
2023-03-16T05:24:14.914Z,997.11
2023-03-16T05:25:14.949Z,997.11
2023-03-16T05:26:14.917Z,997.10
2023-03-16T05:27:14.897Z,997.01
2023-03-16T05:28:14.919Z,997.10
2023-03-16T05:29:14.876Z,997.08
2023-03-16T05:30:14.886Z,997.11
2023-03-16T05:31:14.928Z,997.18
2023-03-16T05:32:14.866Z,997.21
2023-03-16T05:33:14.869Z,997.18
2023-03-16T05:34:14.844Z,997.19
2023-03-16T05:35:14.838Z,997.17
2023-03-16T05:36:14.881Z,997.08
2023-03-16T05:37:14.818Z,997.08
2023-03-16T05:38:14.821Z,997.11
2023-03-16T05:39:14.836Z,997.18
2023-03-16T05:40:14.806Z,997.13
2023-03-16T05:41:14.826Z,997.14
2023-03-16T05:42:14.803Z,997.13
2023-03-16T05:43:14.785Z,997.19
2023-03-16T05:44:14.797Z,997.12
2023-03-16T05:45:14.789Z,997.13
2023-03-16T05:46:14.793Z,997.15
2023-03-16T05:47:14.766Z,997.17
2023-03-16T05:48:14.758Z,997.20
2023-03-16T05:49:14.754Z,997.22
2023-03-16T05:50:14.757Z,997.24
2023-03-16T05:51:14.731Z,997.25
2023-03-16T05:52:14.740Z,997.24
2023-03-16T05:53:14.727Z,997.18
2023-03-16T05:54:14.718Z,997.17
2023-03-16T05:55:14.749Z,997.14
2023-03-16T05:56:14.719Z,997.18
2023-03-16T05:57:14.695Z,997.24
2023-03-16T05:58:14.695Z,997.17
2023-03-16T05:59:14.687Z,997.23
2023-03-16T06:00:14.739Z,997.25
2023-03-16T06:01:14.685Z,997.17
2023-03-16T06:02:14.671Z,997.16
2023-03-16T06:03:14.687Z,997.19
2023-03-16T06:04:14.709Z,997.12
2023-03-16T06:05:14.656Z,997.17
2023-03-16T06:06:14.639Z,997.09
2023-03-16T06:07:14.645Z,997.13
2023-03-16T06:08:14.627Z,997.11
2023-03-16T06:09:14.629Z,997.16
2023-03-16T06:10:14.621Z,997.12
2023-03-16T06:11:14.627Z,997.10
2023-03-16T06:12:14.614Z,997.14
2023-03-16T06:13:14.598Z,997.07
2023-03-16T06:14:14.598Z,997.10
2023-03-16T06:15:14.578Z,997.00
2023-03-16T06:16:14.688Z,997.00
2023-03-16T06:17:14.590Z,996.99
2023-03-16T06:18:14.575Z,996.96
2023-03-16T06:19:14.555Z,996.93
2023-03-16T06:20:14.573Z,996.99
2023-03-16T06:21:14.540Z,996.96
2023-03-16T06:22:14.599Z,996.93
2023-03-16T06:23:14.559Z,996.95
2023-03-16T06:24:14.548Z,996.93
2023-03-16T06:25:14.530Z,996.90
2023-03-16T06:26:14.512Z,996.92
2023-03-16T06:27:14.501Z,996.96
2023-03-16T06:28:14.547Z,997.02
2023-03-16T06:29:14.494Z,996.98
2023-03-16T06:30:14.495Z,997.00
2023-03-16T06:31:14.505Z,997.04
2023-03-16T06:32:14.463Z,996.96
2023-03-16T06:33:14.460Z,996.93
2023-03-16T06:34:14.462Z,996.94
2023-03-16T06:35:14.474Z,996.89
2023-03-16T06:36:14.495Z,996.85
2023-03-16T06:37:14.436Z,996.79
2023-03-16T06:38:14.433Z,996.81
2023-03-16T06:39:14.417Z,996.82
2023-03-16T06:40:14.435Z,996.83
2023-03-16T06:41:14.425Z,996.89
2023-03-16T06:42:14.400Z,996.87
2023-03-16T06:43:14.401Z,996.88
2023-03-16T06:44:14.392Z,996.84
2023-03-16T06:45:14.377Z,996.86
2023-03-16T06:46:14.488Z,996.86
2023-03-16T06:47:14.368Z,996.87
2023-03-16T06:48:14.369Z,996.94
2023-03-16T06:49:14.357Z,996.89
2023-03-16T06:50:14.357Z,996.84
2023-03-16T06:51:16.681Z,996.81
2023-03-16T06:52:14.354Z,996.87
2023-03-16T06:53:14.325Z,996.82
2023-03-16T06:54:14.341Z,996.79
2023-03-16T06:55:14.313Z,996.82
2023-03-16T06:56:14.317Z,996.85
2023-03-16T06:57:14.302Z,996.78
2023-03-16T06:58:14.292Z,996.78
2023-03-16T06:59:14.300Z,996.78
2023-03-16T07:00:14.280Z,996.77
2023-03-16T07:01:14.310Z,996.81
2023-03-16T07:02:14.282Z,996.83
2023-03-16T07:03:14.263Z,996.80
2023-03-16T07:04:14.323Z,996.79
2023-03-16T07:05:14.309Z,996.82
2023-03-16T07:06:14.239Z,996.85
2023-03-16T07:07:14.243Z,996.91
2023-03-16T07:08:14.229Z,996.82
2023-03-16T07:09:14.236Z,996.87
2023-03-16T07:10:14.221Z,996.92
2023-03-16T07:11:14.201Z,996.87
2023-03-16T07:12:14.243Z,996.87
2023-03-16T07:13:14.191Z,996.78
2023-03-16T07:14:14.169Z,996.84
2023-03-16T07:15:14.180Z,996.89
2023-03-16T07:16:14.287Z,996.90
2023-03-16T07:17:14.163Z,996.92
2023-03-16T07:18:14.148Z,996.93
2023-03-16T07:19:14.150Z,996.88
2023-03-16T07:20:14.152Z,996.93
2023-03-16T07:21:14.132Z,996.90
2023-03-16T07:22:15.125Z,996.89
2023-03-16T07:23:14.126Z,996.84
2023-03-16T07:24:14.124Z,996.86
2023-03-16T07:25:14.117Z,996.85
2023-03-16T07:26:14.146Z,996.84
2023-03-16T07:27:14.130Z,996.86
2023-03-16T07:28:14.141Z,996.85
2023-03-16T07:29:14.114Z,996.88
2023-03-16T07:30:14.119Z,996.88
2023-03-16T07:31:14.096Z,996.82
2023-03-16T07:32:14.072Z,996.79
2023-03-16T07:33:14.056Z,996.77
2023-03-16T07:34:14.043Z,996.77
2023-03-16T07:35:14.058Z,996.77
2023-03-16T07:36:14.096Z,996.77
2023-03-16T07:37:14.041Z,996.78
2023-03-16T07:38:14.063Z,996.75
2023-03-16T07:39:14.015Z,996.76
2023-03-16T07:40:14.015Z,996.76
2023-03-16T07:41:14.067Z,996.77
2023-03-16T07:42:14.015Z,996.80
2023-03-16T07:43:13.989Z,996.77
2023-03-16T07:44:13.983Z,996.80
2023-03-16T07:45:14.972Z,996.81
2023-03-16T07:46:14.134Z,996.77
2023-03-16T07:47:13.959Z,996.72
2023-03-16T07:48:13.952Z,996.75
2023-03-16T07:49:13.982Z,996.73
2023-03-16T07:50:13.942Z,996.73
2023-03-16T07:51:13.962Z,996.77
2023-03-16T07:52:13.934Z,996.77
2023-03-16T07:53:13.915Z,996.78
2023-03-16T07:54:13.926Z,996.70
2023-03-16T07:55:13.910Z,996.73
2023-03-16T07:56:13.904Z,996.72
2023-03-16T07:57:13.900Z,996.71
2023-03-16T07:58:13.900Z,996.70
2023-03-16T07:59:13.899Z,996.67
2023-03-16T08:00:13.883Z,996.62
2023-03-16T08:01:13.874Z,996.60
2023-03-16T08:02:13.933Z,996.63
2023-03-16T08:03:13.959Z,996.62
2023-03-16T08:04:13.865Z,996.66
2023-03-16T08:05:13.868Z,996.64
2023-03-16T08:06:13.834Z,996.58
2023-03-16T08:07:13.834Z,996.58
2023-03-16T08:08:13.854Z,996.61
2023-03-16T08:09:13.823Z,996.54
2023-03-16T08:10:13.811Z,996.55
2023-03-16T08:11:13.802Z,996.55
2023-03-16T08:12:13.788Z,996.37
2023-03-16T08:13:14.807Z,996.34
2023-03-16T08:14:13.786Z,996.38
2023-03-16T08:15:13.780Z,996.26
2023-03-16T08:16:13.893Z,996.27
2023-03-16T08:17:13.768Z,996.24
2023-03-16T08:18:13.782Z,996.29
2023-03-16T08:19:13.794Z,996.35
2023-03-16T08:20:13.753Z,996.31
2023-03-16T08:21:13.737Z,996.26
2023-03-16T08:22:14.742Z,996.19
2023-03-16T08:23:13.730Z,996.29
2023-03-16T08:24:13.759Z,996.26
2023-03-16T08:25:13.715Z,996.26
2023-03-16T08:26:13.720Z,996.29
2023-03-16T08:27:13.704Z,996.25
2023-03-16T08:28:13.710Z,996.21
2023-03-16T08:29:13.765Z,996.27
2023-03-16T08:30:13.745Z,996.23
2023-03-16T08:31:13.706Z,996.29
2023-03-16T08:32:13.672Z,996.28
2023-03-16T08:33:13.675Z,996.12
2023-03-16T08:34:13.647Z,996.24
2023-03-16T08:35:13.668Z,996.17
2023-03-16T08:36:13.749Z,996.27
2023-03-16T08:37:13.640Z,996.23
2023-03-16T08:38:13.627Z,996.29
2023-03-16T08:39:13.623Z,996.28
2023-03-16T08:40:13.622Z,996.24
2023-03-16T08:41:13.607Z,996.29
2023-03-16T08:42:13.595Z,996.24
2023-03-16T08:43:13.586Z,996.30
2023-03-16T08:44:13.604Z,996.25
2023-03-16T08:45:14.339Z,996.26
2023-03-16T08:46:14.621Z,996.21
2023-03-16T08:47:13.571Z,996.24
2023-03-16T08:48:13.550Z,996.19
2023-03-16T08:49:13.664Z,996.14
2023-03-16T08:50:13.552Z,996.16
2023-03-16T08:51:13.541Z,996.15
2023-03-16T08:52:13.524Z,996.15
2023-03-16T08:53:13.529Z,996.17
2023-03-16T08:54:13.512Z,996.16
2023-03-16T08:55:13.517Z,996.21
2023-03-16T08:56:13.497Z,996.10
2023-03-16T08:57:13.488Z,996.13
2023-03-16T08:58:13.497Z,996.11
2023-03-16T08:59:23.688Z,996.12
2023-03-16T09:00:15.477Z,996.12
2023-03-16T09:01:13.455Z,996.13
2023-03-16T09:02:13.503Z,996.09
2023-03-16T09:03:13.448Z,996.10
2023-03-16T09:04:13.520Z,996.13
2023-03-16T09:05:13.499Z,996.03
2023-03-16T09:06:13.429Z,996.09
2023-03-16T09:07:13.436Z,996.11
2023-03-16T09:08:13.420Z,996.07
2023-03-16T09:09:13.400Z,996.11
2023-03-16T09:10:13.396Z,995.88
2023-03-16T09:11:13.399Z,995.94
2023-03-16T09:12:13.399Z,995.94
2023-03-16T09:13:13.386Z,995.97
2023-03-16T09:14:13.369Z,996.03
2023-03-16T09:15:13.374Z,996.02
2023-03-16T09:16:13.370Z,995.99
2023-03-16T09:17:13.354Z,995.96
2023-03-16T09:18:13.351Z,996.00
2023-03-16T09:19:13.349Z,995.97
2023-03-16T09:20:26.855Z,995.93
2023-03-16T09:21:15.343Z,995.92
2023-03-16T09:22:13.307Z,995.87
2023-03-16T09:23:13.321Z,995.88
2023-03-16T09:24:13.293Z,995.94
2023-03-16T09:25:13.290Z,995.99
2023-03-16T09:26:13.285Z,995.92
2023-03-16T09:27:13.380Z,995.80
2023-03-16T09:28:13.290Z,995.88
2023-03-16T09:29:13.273Z,995.88
2023-03-16T09:30:13.255Z,995.83
2023-03-16T09:31:13.260Z,995.90
2023-03-16T09:32:13.243Z,995.89
2023-03-16T09:33:13.262Z,995.88
2023-03-16T09:34:13.233Z,995.85
2023-03-16T09:35:13.218Z,995.78
2023-03-16T09:36:13.245Z,995.89
2023-03-16T09:37:13.202Z,995.80
2023-03-16T09:38:13.240Z,995.72
2023-03-16T09:39:13.205Z,995.84
2023-03-16T09:40:13.196Z,995.68
2023-03-16T09:41:13.182Z,995.80
2023-03-16T09:42:13.175Z,995.85
2023-03-16T09:43:13.163Z,995.85
2023-03-16T09:44:13.204Z,995.78
2023-03-16T09:45:13.169Z,995.64
2023-03-16T09:46:13.208Z,995.66
2023-03-16T09:47:13.146Z,995.93
2023-03-16T09:48:13.127Z,995.73
2023-03-16T09:49:13.127Z,995.76
2023-03-16T09:50:13.278Z,995.87
2023-03-16T09:51:13.131Z,995.81
2023-03-16T09:52:13.245Z,995.71
2023-03-16T09:53:13.095Z,995.71
2023-03-16T09:54:13.096Z,995.72
2023-03-16T09:55:13.095Z,995.83
2023-03-16T09:56:13.084Z,995.74
2023-03-16T09:57:13.079Z,995.73
2023-03-16T09:58:13.075Z,995.57
2023-03-16T09:59:13.060Z,995.83
2023-03-16T10:00:13.074Z,995.71
2023-03-16T10:01:13.124Z,995.54
2023-03-16T10:02:13.035Z,995.67
2023-03-16T10:03:13.036Z,995.75
2023-03-16T10:04:13.019Z,995.76
2023-03-16T10:05:13.027Z,995.71
2023-03-16T10:06:13.044Z,995.69
2023-03-16T10:07:12.994Z,995.71
2023-03-16T10:08:13.024Z,995.80
2023-03-16T10:09:12.994Z,995.61
2023-03-16T10:10:12.996Z,995.62
2023-03-16T10:11:12.979Z,995.71
2023-03-16T10:12:12.971Z,995.69
2023-03-16T10:13:12.968Z,995.84
2023-03-16T10:14:12.981Z,995.69
2023-03-16T10:15:13.028Z,995.82
2023-03-16T10:16:12.991Z,995.69
2023-03-16T10:17:12.929Z,995.67
2023-03-16T10:18:13.554Z,995.57
2023-03-16T10:19:13.931Z,995.74
2023-03-16T10:20:12.919Z,995.51
2023-03-16T10:21:12.915Z,995.53
2023-03-16T10:22:12.901Z,995.52
2023-03-16T10:23:12.885Z,995.60
2023-03-16T10:24:12.878Z,995.50
2023-03-16T10:25:12.963Z,995.46
2023-03-16T10:26:12.883Z,995.35
2023-03-16T10:27:13.858Z,995.37
2023-03-16T10:28:12.847Z,995.28
2023-03-16T10:29:12.862Z,995.56
2023-03-16T10:30:12.849Z,995.42
2023-03-16T10:31:12.902Z,995.30
2023-03-16T10:32:12.818Z,995.30
2023-03-16T10:33:12.834Z,995.41
2023-03-16T10:34:12.813Z,995.46
2023-03-16T10:35:12.808Z,995.31
2023-03-16T10:36:12.853Z,995.43
2023-03-16T10:37:12.789Z,995.42
2023-03-16T10:38:13.528Z,995.59
2023-03-16T10:39:12.805Z,995.43
2023-03-16T10:40:12.790Z,995.30
2023-03-16T10:41:12.800Z,995.28
2023-03-16T10:42:12.755Z,995.45
2023-03-16T10:43:12.753Z,995.31
2023-03-16T10:44:12.741Z,995.30
2023-03-16T10:45:12.742Z,995.28
2023-03-16T10:46:14.842Z,995.48
2023-03-16T10:47:13.799Z,995.64
2023-03-16T10:48:12.733Z,995.46
2023-03-16T10:49:12.708Z,995.38
2023-03-16T10:50:12.708Z,995.31
2023-03-16T10:51:12.694Z,995.41
2023-03-16T10:52:12.714Z,995.47
2023-03-16T10:53:12.682Z,995.40
2023-03-16T10:54:12.683Z,995.47
2023-03-16T10:55:12.701Z,995.41
2023-03-16T10:56:12.671Z,995.41
2023-03-16T10:57:12.660Z,995.50
2023-03-16T10:58:12.672Z,995.48
2023-03-16T10:59:12.643Z,995.35
2023-03-16T11:00:12.654Z,995.24
2023-03-16T11:01:12.671Z,995.34
2023-03-16T11:02:12.632Z,995.32
2023-03-16T11:03:12.636Z,995.28
2023-03-16T11:04:12.715Z,995.20
2023-03-16T11:05:12.606Z,995.20
2023-03-16T11:06:12.602Z,995.21
2023-03-16T11:07:12.594Z,995.19
2023-03-16T11:08:12.598Z,995.31
2023-03-16T11:09:12.588Z,995.30
2023-03-16T11:10:12.584Z,995.41
2023-03-16T11:11:12.569Z,995.27
2023-03-16T11:12:12.563Z,995.27
2023-03-16T11:13:12.580Z,995.27
2023-03-16T11:14:12.551Z,995.33
2023-03-16T11:15:23.684Z,995.30
2023-03-16T11:16:14.611Z,995.20
2023-03-16T11:17:12.555Z,995.15
2023-03-16T11:18:12.521Z,995.22
2023-03-16T11:19:12.506Z,995.26
2023-03-16T11:20:12.537Z,995.15
2023-03-16T11:21:12.490Z,995.15
2023-03-16T11:22:12.490Z,995.14
2023-03-16T11:23:12.483Z,995.14
2023-03-16T11:24:12.476Z,995.02
2023-03-16T11:25:12.467Z,995.00
2023-03-16T11:26:12.470Z,995.18
2023-03-16T11:27:12.458Z,995.15
2023-03-16T11:28:12.448Z,995.13
2023-03-16T11:29:12.438Z,995.12
2023-03-16T11:30:12.440Z,995.26
2023-03-16T11:31:12.465Z,995.07
2023-03-16T11:32:14.146Z,994.97
2023-03-16T11:33:12.437Z,995.02
2023-03-16T11:34:12.408Z,994.99
2023-03-16T11:35:12.404Z,994.94
2023-03-16T11:36:12.510Z,994.86
2023-03-16T11:37:12.393Z,994.98
2023-03-16T11:38:12.389Z,994.83
2023-03-16T11:39:12.388Z,994.77
2023-03-16T11:40:12.364Z,994.77
2023-03-16T11:41:12.349Z,994.85
2023-03-16T11:42:12.372Z,994.76
2023-03-16T11:43:12.355Z,994.72
2023-03-16T11:44:12.356Z,994.67
2023-03-16T11:45:12.339Z,994.61
2023-03-16T11:46:12.405Z,994.61
2023-03-16T11:47:12.344Z,994.72
2023-03-16T11:48:12.311Z,994.83
2023-03-16T11:49:12.296Z,994.66
2023-03-16T11:50:12.314Z,994.59
2023-03-16T11:51:12.296Z,994.66
2023-03-16T11:52:12.305Z,994.66
2023-03-16T11:53:12.298Z,994.65
2023-03-16T11:54:12.267Z,994.49
2023-03-16T11:55:12.268Z,994.54
2023-03-16T11:56:12.253Z,994.68
2023-03-16T11:57:12.242Z,994.63
2023-03-16T11:58:12.246Z,994.53
2023-03-16T11:59:12.224Z,994.49
2023-03-16T12:00:12.216Z,994.53
2023-03-16T12:01:12.215Z,994.60
2023-03-16T12:02:12.229Z,994.60
2023-03-16T12:03:12.286Z,994.52
2023-03-16T12:04:12.225Z,994.46
2023-03-16T12:05:12.175Z,994.48
2023-03-16T12:06:22.515Z,994.40
2023-03-16T12:07:14.163Z,994.58
2023-03-16T12:08:12.181Z,994.51
2023-03-16T12:09:12.150Z,994.40
2023-03-16T12:10:12.145Z,994.36
2023-03-16T12:11:12.131Z,994.32
2023-03-16T12:12:12.117Z,994.34
2023-03-16T12:13:12.115Z,994.47
2023-03-16T12:14:12.122Z,994.34
2023-03-16T12:15:12.107Z,994.35
2023-03-16T12:16:12.132Z,994.43
2023-03-16T12:17:12.092Z,994.34
2023-03-16T12:18:12.088Z,994.38
2023-03-16T12:19:12.081Z,994.34
2023-03-16T12:20:12.065Z,994.37
2023-03-16T12:21:12.055Z,994.15
2023-03-16T12:22:12.055Z,994.21
2023-03-16T12:23:12.038Z,994.29
2023-03-16T12:24:12.052Z,994.29
2023-03-16T12:25:12.025Z,994.16
2023-03-16T12:26:12.024Z,994.09
2023-03-16T12:27:12.013Z,994.07
2023-03-16T12:28:12.002Z,994.09